Time;durP1;ratioP1;P1;durP2;ratioP2;P2;SDS_P1;SDS_P2;PMS_P1;PMS_P2;Temp;Humidity;BMP_temperature;BMP_pressure;BME280_temperature;BME280_humidity;BME280_pressure;Samples;Min_cycle;Max_cycle;Signal;HPM_P1;HPM_P2
2023/07/25 00:00:43;;;;;;;14.40;9.10;;;;;;;30.53;37.09;99274.98;107997;1253;60388;-69
2023/07/25 00:03:11;;;;;;;13.90;8.80;;;;;;;30.57;37.20;99271.47;107973;1253;60328;-70
2023/07/25 00:05:38;;;;;;;14.60;8.70;;;;;;;30.54;37.19;99275.02;108149;1253;73262;-70
2023/07/25 00:08:06;;;;;;;15.10;9.20;;;;;;;30.65;36.82;99271.81;108008;1254;70301;-69
2023/07/25 00:10:34;;;;;;;13.70;8.10;;;;;;;30.57;36.88;99269.55;108005;1254;71489;-69
2023/07/25 00:13:01;;;;;;;13.80;8.70;;;;;;;30.67;36.84;99261.57;107973;1254;60376;-67
2023/07/25 00:15:29;;;;;;;15.40;8.90;;;;;;;30.72;36.66;99255.68;108052;1253;60345;-69
2023/07/25 00:17:56;;;;;;;13.80;9.00;;;;;;;30.79;36.36;99252.84;108097;1254;74641;-69
2023/07/25 00:20:24;;;;;;;11.90;8.50;;;;;;;30.86;36.13;99252.10;108074;1254;70295;-69
2023/07/25 00:22:51;;;;;;;15.30;8.30;;;;;;;30.93;35.95;99253.27;108121;1256;72704;-68
2023/07/25 00:25:19;;;;;;;15.00;8.40;;;;;;;30.93;35.96;99253.39;108081;1254;61694;-68
2023/07/25 00:27:47;;;;;;;13.50;8.30;;;;;;;31.08;35.69;99246.23;108119;1254;60206;-69
2023/07/25 00:30:14;;;;;;;13.90;8.30;;;;;;;31.00;35.60;99246.05;108055;1254;73869;-67
2023/07/25 00:32:41;;;;;;;12.80;8.20;;;;;;;31.02;35.61;99242.11;108145;1253;70118;-68
2023/07/25 00:35:10;;;;;;;12.90;8.60;;;;;;;31.10;35.34;99239.12;108082;1254;72037;-69
2023/07/25 00:37:37;;;;;;;11.70;8.00;;;;;;;31.18;34.98;99239.18;108084;1253;61940;-69
2023/07/25 00:40:06;;;;;;;14.70;8.50;;;;;;;31.26;34.71;99238.97;108053;1254;60311;-69
2023/07/25 00:42:33;;;;;;;13.80;8.40;;;;;;;31.11;34.85;99239.41;108111;1254;73789;-67
2023/07/25 00:45:00;;;;;;;17.40;9.00;;;;;;;31.16;34.64;99233.67;108095;1257;70301;-67
2023/07/25 00:47:28;;;;;;;15.80;7.70;;;;;;;30.99;34.84;99231.02;108076;1254;72747;-68
2023/07/25 00:49:55;;;;;;;14.90;8.90;;;;;;;30.91;34.77;99226.67;108109;1258;61661;-68
2023/07/25 00:52:23;;;;;;;14.80;8.80;;;;;;;31.14;34.53;99227.48;108072;1257;60318;-68
2023/07/25 00:54:50;;;;;;;13.90;8.50;;;;;;;31.25;34.26;99223.43;108161;1253;74268;-68
2023/07/25 00:57:19;;;;;;;12.00;7.50;;;;;;;31.25;34.09;99224.35;108234;1253;70307;-69
2023/07/25 00:59:47;;;;;;;12.50;7.60;;;;;;;31.03;34.35;99223.40;108154;1254;73066;-68
2023/07/25 01:02:15;;;;;;;14.40;8.20;;;;;;;30.99;34.34;99219.59;107988;1253;61215;-69
2023/07/25 01:04:43;;;;;;;14.20;8.50;;;;;;;31.24;34.20;99218.52;108166;1252;60316;-68
2023/07/25 01:07:12;;;;;;;12.80;7.60;;;;;;;31.09;34.13;99218.09;108097;1252;72781;-68
2023/07/25 01:09:46;;;;;;;16.70;8.60;;;;;;;30.96;34.34;99216.97;108365;1252;70046;-68
2023/07/25 01:12:13;;;;;;;13.30;7.70;;;;;;;31.16;34.08;99218.36;108047;1257;72427;-68
2023/07/25 01:14:41;;;;;;;11.80;7.80;;;;;;;31.17;33.91;99222.61;108055;1254;61486;-68
2023/07/25 01:17:12;;;;;;;13.90;8.60;;;;;;;31.12;34.17;99223.14;108111;1253;60393;-69
2023/07/25 01:19:41;;;;;;;13.50;8.50;;;;;;;31.11;34.06;99228.82;108152;1253;73280;-70
2023/07/25 01:22:09;;;;;;;15.50;8.20;;;;;;;30.81;34.52;99228.00;108130;1257;69449;-70
2023/07/25 01:24:40;;;;;;;12.90;7.70;;;;;;;30.89;34.16;99227.89;108062;1254;72741;-69
2023/07/25 01:27:08;;;;;;;11.60;7.80;;;;;;;30.93;34.15;99223.71;108114;1254;61751;-70
2023/07/25 01:29:35;;;;;;;15.10;8.10;;;;;;;30.80;34.28;99228.38;108132;1253;60330;-69
2023/07/25 01:32:04;;;;;;;14.90;8.20;;;;;;;30.83;34.32;99224.74;108109;1254;72630;-69
2023/07/25 01:34:31;;;;;;;12.70;8.40;;;;;;;30.83;34.09;99223.04;108118;1257;70739;-69
2023/07/25 01:36:59;;;;;;;11.90;8.00;;;;;;;30.89;34.30;99219.32;108097;1254;72668;-69
2023/07/25 01:39:26;;;;;;;12.20;7.40;;;;;;;30.99;33.93;99218.60;108167;1254;61682;-69
2023/07/25 01:41:54;;;;;;;14.70;8.50;;;;;;;30.98;33.92;99216.51;108004;1254;59158;-69
2023/07/25 01:44:21;;;;;;;12.60;8.30;;;;;;;30.84;34.10;99218.92;107945;1254;73789;-70
2023/07/25 01:46:48;;;;;;;10.90;7.20;;;;;;;30.73;34.45;99216.09;107955;1256;70447;-67
2023/07/25 01:49:16;;;;;;;12.80;8.90;;;;;;;30.52;34.71;99219.18;108071;1254;72346;-70
2023/07/25 01:51:43;;;;;;;13.60;8.30;;;;;;;30.45;34.80;99225.33;107955;1253;61883;-68
2023/07/25 01:54:10;;;;;;;14.60;8.20;;;;;;;30.35;35.01;99221.73;107956;1254;60300;-68
2023/07/25 01:56:38;;;;;;;16.10;8.80;;;;;;;30.53;34.78;99223.70;107996;1252;73909;-67
2023/07/25 01:59:05;;;;;;;14.40;9.30;;;;;;;30.49;34.78;99226.62;107862;1254;69368;-68
2023/07/25 02:01:33;;;;;;;15.50;7.70;;;;;;;30.23;35.18;99224.88;107917;1260;72712;-67
2023/07/25 02:04:01;;;;;;;15.80;9.20;;;;;;;30.15;35.32;99227.08;107953;1257;61703;-67
2023/07/25 02:06:28;;;;;;;12.70;8.40;;;;;;;30.10;35.43;99224.56;107994;1253;59780;-69
2023/07/25 02:08:56;;;;;;;11.70;8.00;;;;;;;30.08;35.31;99224.10;108032;1254;72636;-69
2023/07/25 02:11:23;;;;;;;14.10;8.60;;;;;;;30.10;35.44;99222.77;107980;1253;70275;-68
2023/07/25 02:13:50;;;;;;;15.80;8.80;;;;;;;30.03;35.66;99225.88;107907;1254;72687;-67
2023/07/25 02:16:18;;;;;;;14.20;9.40;;;;;;;30.16;35.25;99224.45;107989;1259;60377;-68
2023/07/25 02:18:45;;;;;;;13.40;8.40;;;;;;;30.27;35.05;99223.73;108050;1254;60299;-69
2023/07/25 02:21:13;;;;;;;14.70;9.10;;;;;;;30.02;35.21;99220.25;108031;1254;74342;-69
2023/07/25 02:23:41;;;;;;;13.80;8.80;;;;;;;29.67;35.86;99216.15;108121;1254;70435;-69
2023/07/25 02:26:08;;;;;;;13.30;8.70;;;;;;;29.67;35.97;99226.09;108028;1253;72451;-69
2023/07/25 02:28:35;;;;;;;12.50;9.10;;;;;;;29.76;35.90;99221.30;108156;1254;61619;-69
2023/07/25 02:31:03;;;;;;;13.50;8.40;;;;;;;29.68;35.77;99219.88;108134;1254;60447;-69
2023/07/25 02:33:30;;;;;;;17.10;9.20;;;;;;;29.66;36.10;99216.27;108044;1252;72572;-69
2023/07/25 02:35:57;;;;;;;17.90;8.90;;;;;;;29.68;35.97;99209.23;108168;1253;70340;-69
2023/07/25 02:38:25;;;;;;;14.30;8.80;;;;;;;29.79;35.71;99209.20;108047;1258;71114;-68
2023/07/25 02:40:52;;;;;;;18.10;8.60;;;;;;;29.91;35.54;99203.92;108123;1253;61911;-67
2023/07/25 02:43:22;;;;;;;12.30;8.40;;;;;;;29.81;35.66;99202.23;108023;1252;60995;-67
2023/07/25 02:45:50;;;;;;;13.00;9.00;;;;;;;29.73;35.73;99203.81;108098;1257;73804;-69
2023/07/25 02:48:19;;;;;;;14.10;9.20;;;;;;;29.91;35.72;99201.75;108101;1254;69979;-67
2023/07/25 02:50:46;;;;;;;14.00;8.30;;;;;;;29.77;36.04;99196.71;108065;1254;71646;-68
2023/07/25 02:53:14;;;;;;;12.60;9.00;;;;;;;29.60;36.29;99193.75;108157;1254;62123;-68
2023/07/25 02:55:41;;;;;;;14.30;8.50;;;;;;;29.35;36.88;99191.96;108032;1253;60442;-67
2023/07/25 02:58:09;;;;;;;14.30;9.10;;;;;;;29.30;36.86;99193.44;108206;1258;73798;-67
2023/07/25 03:00:36;;;;;;;16.40;9.10;;;;;;;29.30;37.13;99192.35;108129;1254;70043;-66
2023/07/25 03:03:04;;;;;;;15.60;9.50;;;;;;;29.24;37.31;99190.36;108154;1254;72680;-68
2023/07/25 03:05:31;;;;;;;15.50;9.20;;;;;;;29.27;37.14;99190.92;108209;1253;61757;-66
2023/07/25 03:07:59;;;;;;;11.50;8.50;;;;;;;29.38;36.78;99192.32;108141;1254;60467;-69
2023/07/25 03:10:26;;;;;;;15.90;9.60;;;;;;;29.32;37.38;99190.35;108113;1254;71985;-69
2023/07/25 03:12:53;;;;;;;14.70;9.10;;;;;;;29.31;37.35;99185.60;108174;1252;70314;-69
2023/07/25 03:15:21;;;;;;;14.40;9.30;;;;;;;29.36;37.13;99185.46;108080;1254;72456;-69
2023/07/25 03:17:49;;;;;;;15.40;9.60;;;;;;;29.52;37.13;99182.73;108044;1253;62110;-68
2023/07/25 03:20:16;;;;;;;12.50;9.00;;;;;;;29.48;37.06;99189.52;108109;1254;60474;-69
2023/07/25 03:22:44;;;;;;;15.00;8.70;;;;;;;29.28;37.74;99188.92;108076;1259;72541;-69
2023/07/25 03:25:11;;;;;;;14.40;9.00;;;;;;;29.34;37.75;99192.61;108131;1253;70502;-69
2023/07/25 03:27:38;;;;;;;16.70;9.00;;;;;;;29.42;37.56;99188.52;108029;1254;71382;-69
2023/07/25 03:30:06;;;;;;;15.80;9.40;;;;;;;29.53;37.55;99182.94;108066;1252;61776;-71
2023/07/25 03:32:34;;;;;;;15.70;9.70;;;;;;;29.57;37.38;99175.98;108020;1252;60438;-68
2023/07/25 03:35:01;;;;;;;11.10;8.30;;;;;;;29.53;37.62;99178.19;108033;1253;73823;-68
2023/07/25 03:37:28;;;;;;;14.10;8.90;;;;;;;29.54;37.64;99179.52;107927;1254;69052;-69
2023/07/25 03:39:56;;;;;;;14.50;9.40;;;;;;;29.74;37.45;99179.95;108007;1255;71081;-70
2023/07/25 03:42:23;;;;;;;13.60;9.30;;;;;;;30.02;37.16;99179.89;108010;1254;61745;-69
2023/07/25 03:44:51;;;;;;;17.40;9.60;;;;;;;30.17;36.71;99175.13;108035;1254;60443;-68
2023/07/25 03:47:19;;;;;;;16.30;9.60;;;;;;;30.34;36.47;99171.58;108079;1254;73887;-68
2023/07/25 03:49:46;;;;;;;16.10;10.20;;;;;;;30.34;36.55;99167.35;108081;1254;70288;-69
2023/07/25 03:52:13;;;;;;;18.50;9.60;;;;;;;30.44;36.44;99160.96;108129;1254;71410;-68
2023/07/25 03:54:41;;;;;;;15.40;9.00;;;;;;;30.52;36.58;99154.16;107983;1255;61651;-69
2023/07/25 03:57:08;;;;;;;18.30;8.80;;;;;;;30.62;36.36;99150.87;108021;1254;60463;-68
2023/07/25 03:59:36;;;;;;;16.70;8.80;;;;;;;30.84;35.93;99150.11;108054;1253;73850;-68
2023/07/25 04:02:04;;;;;;;14.60;8.70;;;;;;;30.77;36.21;99147.35;107987;1254;70291;-69
2023/07/25 04:04:31;;;;;;;14.50;8.90;;;;;;;30.75;36.17;99156.42;107930;1257;72155;-69
2023/07/25 04:06:59;;;;;;;16.00;8.40;;;;;;;30.62;36.46;99154.42;108060;1257;61684;-68
2023/07/25 04:09:26;;;;;;;13.70;9.20;;;;;;;30.48;36.86;99155.07;107998;1254;60390;-66
2023/07/25 04:11:54;;;;;;;15.10;8.90;;;;;;;30.70;36.63;99154.71;108101;1254;72815;-66
2023/07/25 04:14:21;;;;;;;15.10;9.10;;;;;;;30.67;36.96;99158.02;108140;1254;70411;-65
2023/07/25 04:16:49;;;;;;;12.50;8.70;;;;;;;31.07;36.47;99157.96;108019;1256;72314;-66
2023/07/25 04:19:16;;;;;;;17.70;9.00;;;;;;;31.09;36.45;99164.63;107980;1254;60466;-68
2023/07/25 04:21:44;;;;;;;16.10;8.80;;;;;;;31.18;36.25;99160.99;108151;1258;60450;-67
2023/07/25 04:24:11;;;;;;;16.80;8.50;;;;;;;31.06;36.35;99156.34;108084;1257;72924;-69
2023/07/25 04:26:39;;;;;;;12.90;9.20;;;;;;;30.79;36.78;99153.66;107986;1259;70738;-68
2023/07/25 04:29:06;;;;;;;13.20;8.80;;;;;;;30.77;36.95;99150.32;108043;1253;72651;-68
2023/07/25 04:31:33;;;;;;;15.10;9.20;;;;;;;30.74;37.02;99155.50;107983;1254;60883;-68
2023/07/25 04:34:01;;;;;;;14.00;8.90;;;;;;;30.94;36.80;99164.62;108002;1254;60404;-70
2023/07/25 04:36:29;;;;;;;15.10;9.30;;;;;;;31.05;36.73;99169.30;107967;1253;73800;-69
2023/07/25 04:38:57;;;;;;;14.00;8.70;;;;;;;31.30;36.38;99170.24;108047;1254;68574;-70
2023/07/25 04:41:24;;;;;;;16.20;9.00;;;;;;;31.57;35.80;99163.91;108051;1254;72625;-70
2023/07/25 04:43:51;;;;;;;12.50;8.40;;;;;;;31.70;35.53;99164.48;108037;1255;60449;-70
2023/07/25 04:46:19;;;;;;;14.90;8.60;;;;;;;31.79;35.41;99159.66;108091;1254;60469;-69
2023/07/25 04:48:46;;;;;;;16.40;9.00;;;;;;;31.96;35.21;99157.48;108051;1254;73863;-70
2023/07/25 04:51:14;;;;;;;14.20;8.90;;;;;;;32.55;34.49;99157.56;107953;1252;70005;-69
2023/07/25 04:53:41;;;;;;;15.70;8.30;;;;;;;33.03;33.75;99160.20;107908;1254;72645;-70
2023/07/25 04:56:09;;;;;;;18.60;8.50;;;;;;;33.15;33.51;99163.52;107908;1257;59903;-69
2023/07/25 04:58:43;;;;;;;19.00;8.70;;;;;;;33.16;33.35;99159.52;107798;1254;240252;-69
2023/07/25 05:02:23;;;;;;;15.50;7.90;;;;;;;31.37;36.57;99165.82;104935;1290;601164;-70
2023/07/25 05:04:51;;;;;;;14.00;8.40;;;;;;;32.87;34.08;99154.33;108056;1253;60059;-70
2023/07/25 05:07:18;;;;;;;14.10;8.60;;;;;;;33.34;33.41;99150.45;108071;1257;59206;-68
2023/07/25 05:09:46;;;;;;;13.70;8.00;;;;;;;33.86;32.53;99145.69;108054;1254;72201;-69
2023/07/25 05:12:13;;;;;;;15.20;8.00;;;;;;;33.99;32.18;99140.02;108069;1253;61433;-69
2023/07/25 05:14:41;;;;;;;13.30;7.70;;;;;;;34.32;31.73;99138.52;108078;1254;63706;-69
2023/07/25 05:17:08;;;;;;;17.00;8.30;;;;;;;34.36;31.56;99132.55;108006;1251;286641;-71
2023/07/25 05:19:36;;;;;;;16.20;8.20;;;;;;;34.45;31.53;99129.76;108262;1251;59131;-69
2023/07/25 05:22:04;;;;;;;12.10;7.00;;;;;;;34.37;31.74;99130.83;108211;1251;62008;-69
2023/07/25 05:24:31;;;;;;;13.80;7.20;;;;;;;34.65;31.37;99132.00;108274;1251;61534;-70
2023/07/25 05:26:59;;;;;;;18.30;8.80;;;;;;;34.83;30.99;99130.45;108261;1251;63739;-70
2023/07/25 05:29:26;;;;;;;14.80;7.70;;;;;;;35.18;30.86;99134.46;108155;1251;59535;-69
2023/07/25 05:31:54;;;;;;;18.00;8.60;;;;;;;35.49;30.35;99133.39;108289;1251;59371;-71
2023/07/25 05:34:21;;;;;;;20.10;8.10;;;;;;;35.47;29.91;99133.14;108228;1251;64091;-70
2023/07/25 05:36:49;;;;;;;19.90;8.20;;;;;;;35.45;29.75;99127.34;108287;1251;62664;-69
2023/07/25 05:39:16;;;;;;;18.20;8.00;;;;;;;35.55;29.87;99121.19;108224;1251;63781;-68
2023/07/25 05:41:43;;;;;;;20.70;8.10;;;;;;;35.67;29.83;99119.02;108267;1251;59602;-69
2023/07/25 05:44:11;;;;;;;22.80;8.40;;;;;;;35.96;29.34;99110.78;108231;1251;59627;-68
2023/07/25 05:46:38;;;;;;;20.60;7.60;;;;;;;36.37;28.96;99105.05;108293;1254;64052;-70
2023/07/25 05:49:05;;;;;;;17.40;8.10;;;;;;;36.50;28.75;99103.52;108406;1251;61415;-69
2023/07/25 05:51:34;;;;;;;18.40;7.40;;;;;;;36.94;28.33;99104.10;108323;1251;63743;-68
2023/07/25 05:54:02;;;;;;;15.40;7.80;;;;;;;37.02;27.84;99103.98;108216;1251;59616;-71
2023/07/25 05:56:29;;;;;;;11.50;7.40;;;;;;;37.18;27.77;99105.69;108365;1251;59733;-69
2023/07/25 05:58:57;;;;;;;15.50;7.60;;;;;;;37.50;27.89;99101.20;108298;1253;65100;-69
2023/07/25 06:01:24;;;;;;;15.10;8.00;;;;;;;37.67;27.64;99101.64;108204;1254;61308;-69
2023/07/25 06:03:51;;;;;;;17.90;7.70;;;;;;;37.87;27.50;99098.54;108223;1253;63885;-71
2023/07/25 06:06:19;;;;;;;11.50;6.80;;;;;;;37.92;27.24;99097.27;108151;1253;59630;-69
2023/07/25 06:08:46;;;;;;;18.90;7.40;;;;;;;37.95;27.01;99095.87;108180;1253;59403;-69
2023/07/25 06:11:15;;;;;;;14.50;6.70;;;;;;;37.82;27.27;99091.13;108186;1252;64221;-69
2023/07/25 06:13:43;;;;;;;19.10;7.90;;;;;;;37.82;27.31;99090.19;108249;1253;61646;-70
2023/07/25 06:16:10;;;;;;;15.30;7.70;;;;;;;37.98;27.53;99093.11;108146;1256;62511;-73
2023/07/25 06:18:38;;;;;;;17.00;7.50;;;;;;;38.18;27.40;99088.83;108096;1254;59934;-69
2023/07/25 06:21:05;;;;;;;12.50;6.70;;;;;;;38.55;26.99;99087.06;108211;1254;59385;-71
2023/07/25 06:23:33;;;;;;;12.50;7.10;;;;;;;38.81;26.71;99089.70;108239;1253;64188;-70
2023/07/25 06:26:00;;;;;;;14.00;6.90;;;;;;;38.73;26.45;99091.52;108154;1253;61373;-71
2023/07/25 06:28:27;;;;;;;11.60;7.20;;;;;;;38.49;26.71;99091.36;108197;1254;63695;-70
2023/07/25 06:30:55;;;;;;;14.40;6.90;;;;;;;38.61;26.78;99090.39;108180;1252;59141;-72
2023/07/25 06:33:22;;;;;;;12.50;7.20;;;;;;;38.77;26.59;99086.75;108163;1254;60272;-68
2023/07/25 06:35:49;;;;;;;13.30;7.90;;;;;;;38.89;26.46;99087.81;108130;1253;72174;-68
2023/07/25 06:38:17;;;;;;;11.60;6.90;;;;;;;38.65;26.58;99087.41;108133;1253;60631;-70
2023/07/25 06:40:44;;;;;;;12.70;6.40;;;;;;;38.09;27.15;99081.69;108111;1254;63733;-70
2023/07/25 06:43:12;;;;;;;13.80;6.80;;;;;;;38.43;26.86;99073.93;108116;1254;59643;-69
2023/07/25 06:45:39;;;;;;;15.60;6.50;;;;;;;38.82;26.73;99069.83;108186;1253;59660;-70
2023/07/25 06:48:07;;;;;;;13.00;6.50;;;;;;;39.19;26.39;99066.86;108059;1253;64120;-70
2023/07/25 06:50:34;;;;;;;12.20;7.30;;;;;;;39.29;26.28;99070.76;108128;1254;60081;-70
2023/07/25 06:53:03;;;;;;;13.30;7.30;;;;;;;39.57;25.84;99072.10;108111;1254;63814;-72
2023/07/25 06:55:30;;;;;;;13.60;6.70;;;;;;;39.88;25.59;99068.34;108119;1254;59526;-70
2023/07/25 06:57:57;;;;;;;11.80;6.80;;;;;;;40.12;25.52;99064.83;108232;1253;59611;-72
2023/07/25 07:00:25;;;;;;;13.00;6.70;;;;;;;40.16;25.37;99063.11;107974;1254;65008;-70
2023/07/25 07:02:53;;;;;;;8.30;6.20;;;;;;;40.42;25.20;99061.10;107917;1257;61292;-71
2023/07/25 07:05:21;;;;;;;10.60;6.50;;;;;;;40.65;24.59;99053.71;107955;1256;62492;-70
2023/07/25 07:07:57;;;;;;;10.50;6.30;;;;;;;40.83;24.51;99052.90;107967;1256;59440;-70
2023/07/25 07:10:25;;;;;;;14.30;6.60;;;;;;;40.87;24.26;99052.82;108076;1254;59539;-70
2023/07/25 07:12:53;;;;;;;13.00;6.80;;;;;;;41.09;24.01;99049.54;107950;1254;64246;-69
2023/07/25 07:15:24;;;;;;;11.50;6.10;;;;;;;40.65;24.28;99046.33;107996;1254;61452;-71
2023/07/25 07:17:52;;;;;;;9.90;6.10;;;;;;;40.27;24.32;99046.88;107967;1254;62510;-70
2023/07/25 07:20:20;;;;;;;11.10;7.00;;;;;;;39.72;24.76;99047.17;108157;1253;59545;-69
2023/07/25 07:22:48;;;;;;;11.80;6.60;;;;;;;39.67;25.20;99041.52;108007;1253;59539;-69
2023/07/25 07:25:15;;;;;;;14.00;7.10;;;;;;;39.95;25.20;99035.48;108027;1253;72144;-70
2023/07/25 07:27:43;;;;;;;12.60;5.80;;;;;;;40.56;24.49;99027.06;108048;1253;61318;-70
2023/07/25 07:30:10;;;;;;;11.30;6.60;;;;;;;40.60;24.76;99023.98;108006;1254;63906;-69
2023/07/25 07:32:38;;;;;;;12.50;6.20;;;;;;;40.91;24.59;99021.79;108108;1255;59541;-70
2023/07/25 07:35:07;;;;;;;13.10;6.00;;;;;;;40.88;24.61;99013.84;108019;1253;59526;-71
2023/07/25 07:37:34;;;;;;;9.80;6.30;;;;;;;41.17;23.88;99016.70;108063;1253;64090;-70
2023/07/25 07:40:03;;;;;;;9.90;6.60;;;;;;;41.48;23.60;99010.10;108171;1253;61738;-70
2023/07/25 07:42:30;;;;;;;9.10;6.40;;;;;;;41.37;23.42;99008.96;107981;1256;62430;-68
2023/07/25 07:44:58;;;;;;;11.50;6.40;;;;;;;41.22;23.55;99004.24;108040;1255;59535;-70
2023/07/25 07:47:25;;;;;;;12.00;6.50;;;;;;;41.33;23.62;99001.91;108038;1253;59608;-70
2023/07/25 07:49:52;;;;;;;7.70;6.00;;;;;;;41.54;23.55;99006.14;108196;1253;64246;-71
2023/07/25 07:52:20;;;;;;;7.00;6.10;;;;;;;41.51;23.49;99007.59;108108;1253;61405;-70
2023/07/25 07:55:03;;;;;;;11.40;6.50;;;;;;;41.85;23.02;99006.10;107979;1258;62507;-69
2023/07/25 07:57:31;;;;;;;8.10;6.00;;;;;;;42.02;23.11;98997.00;108042;1255;59164;-69
2023/07/25 07:59:58;;;;;;;9.70;6.60;;;;;;;42.38;22.69;98998.64;108191;1253;57486;-69
2023/07/25 08:02:26;;;;;;;11.00;6.40;;;;;;;42.42;23.09;99002.81;108160;1252;64664;-69
2023/07/25 08:04:53;;;;;;;9.60;6.50;;;;;;;42.11;22.95;99007.67;108348;1254;61408;-70
2023/07/25 08:07:21;;;;;;;9.30;6.40;;;;;;;41.93;22.78;99003.08;108295;1254;63817;-69
2023/07/25 08:09:55;;;;;;;10.40;6.30;;;;;;;41.36;23.20;98998.17;108141;1252;59490;-70
2023/07/25 08:12:23;;;;;;;12.80;6.60;;;;;;;41.12;23.12;98993.20;108192;1254;59403;-69
2023/07/25 08:14:50;;;;;;;10.80;6.90;;;;;;;41.36;23.41;98987.64;108211;1253;62978;-70
2023/07/25 08:17:18;;;;;;;8.90;6.50;;;;;;;41.53;23.20;98990.85;108101;1252;61397;-70
2023/07/25 08:19:45;;;;;;;12.30;6.60;;;;;;;41.62;23.48;98985.23;108327;1252;71425;-71
2023/07/25 08:22:13;;;;;;;10.40;6.00;;;;;;;41.61;23.27;98992.82;108159;1256;59557;-69
2023/07/25 08:24:40;;;;;;;8.90;6.50;;;;;;;41.68;23.31;98991.04;108129;1254;59403;-70
2023/07/25 08:27:08;;;;;;;11.40;6.90;;;;;;;41.72;23.19;98990.35;108294;1253;64190;-71
2023/07/25 08:29:40;;;;;;;10.40;6.40;;;;;;;42.05;23.42;98988.25;108184;1254;61389;-71
2023/07/25 08:32:08;;;;;;;8.20;6.20;;;;;;;42.29;22.89;98987.45;108256;1254;62510;-69
2023/07/25 08:34:36;;;;;;;10.10;6.20;;;;;;;42.61;22.18;98986.76;108124;1256;59523;-71
2023/07/25 08:37:05;;;;;;;8.90;6.40;;;;;;;42.80;21.99;98988.02;108125;1252;59532;-71
2023/07/25 08:39:33;;;;;;;12.00;6.70;;;;;;;43.07;21.88;98988.77;108255;1253;64090;-70
2023/07/25 08:42:01;;;;;;;9.10;6.10;;;;;;;43.23;21.81;98992.10;108213;1256;60084;-70
2023/07/25 08:44:30;;;;;;;9.90;6.10;;;;;;;43.30;21.54;98989.29;108229;1254;64227;-70
2023/07/25 08:46:57;;;;;;;9.80;6.00;;;;;;;43.48;21.47;98985.73;108156;1254;59477;-69
2023/07/25 08:49:25;;;;;;;9.70;6.20;;;;;;;43.56;21.33;98987.00;108128;1254;59640;-70
2023/07/25 08:51:53;;;;;;;15.40;7.00;;;;;;;43.25;21.35;98987.64;108120;1253;64177;-71
2023/07/25 08:54:34;;;;;;;9.00;6.20;;;;;;;42.68;21.82;98976.27;108214;1253;60107;-71
2023/07/25 08:57:02;;;;;;;8.40;6.40;;;;;;;42.34;22.62;98970.08;108213;1254;63881;-71
2023/07/25 08:59:30;;;;;;;11.60;6.10;;;;;;;41.92;22.51;98963.41;108082;1253;59580;-70
2023/07/25 09:01:58;;;;;;;10.80;6.70;;;;;;;41.69;23.00;98956.16;108243;1254;60105;-70
2023/07/25 09:04:26;;;;;;;11.30;6.50;;;;;;;41.96;23.16;98954.21;108103;1253;63095;-71
2023/07/25 09:06:54;;;;;;;11.10;6.30;;;;;;;42.11;23.03;98954.89;108052;1253;62675;-70
2023/07/25 09:09:22;;;;;;;12.70;6.50;;;;;;;42.14;23.07;98954.68;108093;1253;64083;-70
2023/07/25 09:11:49;;;;;;;8.60;6.40;;;;;;;42.04;22.95;98959.88;108228;1253;60329;-70
2023/07/25 09:14:17;;;;;;;10.20;6.70;;;;;;;41.75;23.23;98959.49;108093;1254;60463;-70
2023/07/25 09:16:44;;;;;;;8.60;6.80;;;;;;;41.86;23.04;98960.77;108139;1252;64950;-70
2023/07/25 09:19:12;;;;;;;10.50;6.60;;;;;;;42.00;22.93;98956.65;108087;1253;70884;-70
2023/07/25 09:21:56;;;;;;;9.40;6.30;;;;;;;42.58;22.77;98955.46;108140;1253;63702;-71
2023/07/25 09:24:37;;;;;;;10.30;6.10;;;;;;;43.22;22.04;98959.15;108232;1254;60890;-69
2023/07/25 09:27:25;;;;;;;8.40;6.10;;;;;;;43.28;21.66;98954.74;108034;1254;60309;-71
2023/07/25 09:29:53;;;;;;;10.30;6.70;;;;;;;42.75;22.23;98950.80;108097;1254;65031;-71
2023/07/25 09:32:25;;;;;;;11.40;6.80;;;;;;;43.06;22.21;98944.23;108309;1254;61311;-71
2023/07/25 09:34:58;;;;;;;11.00;6.30;;;;;;;43.32;21.63;98945.48;108171;1253;62744;-71
2023/07/25 09:37:25;;;;;;;9.40;6.70;;;;;;;43.35;20.98;98940.39;108081;1254;60404;-72
2023/07/25 09:39:52;;;;;;;11.30;6.30;;;;;;;43.54;21.13;98940.36;108042;1254;60433;-69
2023/07/25 09:42:22;;;;;;;9.00;6.60;;;;;;;43.79;21.09;98931.02;108113;1254;64069;-68
2023/07/25 09:44:51;;;;;;;9.10;6.20;;;;;;;43.83;21.08;98931.30;108149;1254;61336;-70
2023/07/25 09:47:23;;;;;;;12.20;6.20;;;;;;;43.60;21.50;98937.86;108012;1254;63802;-71
2023/07/25 09:49:53;;;;;;;10.50;6.40;;;;;;;43.45;21.15;98936.48;108176;1254;60642;-70
2023/07/25 09:52:22;;;;;;;12.60;6.10;;;;;;;43.42;21.42;98933.68;108238;1254;59251;-72
2023/07/25 09:54:49;;;;;;;10.10;6.40;;;;;;;43.15;21.63;98927.31;108167;1254;64918;-71
2023/07/25 09:57:17;;;;;;;13.10;7.00;;;;;;;43.43;21.76;98919.40;108091;1254;61365;-71
2023/07/25 09:59:44;;;;;;;12.10;6.20;;;;;;;43.67;21.78;98917.08;108063;1254;62544;-71
2023/07/25 10:02:12;;;;;;;15.70;6.10;;;;;;;43.34;21.75;98923.17;108097;1254;60358;-70
2023/07/25 10:04:39;;;;;;;11.20;6.90;;;;;;;42.99;21.59;98927.94;107929;1252;60425;-72
2023/07/25 10:07:07;;;;;;;11.80;6.90;;;;;;;42.95;21.74;98919.20;108074;1254;64057;-70
2023/07/25 10:09:34;;;;;;;10.80;6.50;;;;;;;42.89;21.76;98922.62;107994;1254;61472;-71
2023/07/25 10:12:03;;;;;;;15.20;6.60;;;;;;;43.12;21.28;98917.35;108133;1254;63850;-70
2023/07/25 10:14:36;;;;;;;10.40;6.90;;;;;;;43.31;21.60;98917.14;108067;1253;60552;-72
2023/07/25 10:17:07;;;;;;;9.00;6.80;;;;;;;42.93;21.36;98924.45;108080;1253;60549;-71
2023/07/25 10:19:50;;;;;;;12.50;6.30;;;;;;;42.49;21.60;98916.67;108043;1254;65026;-71
2023/07/25 10:22:36;;;;;;;10.60;6.60;;;;;;;42.03;22.55;98917.19;108130;1254;61860;-71
2023/07/25 10:25:19;;;;;;;9.80;6.50;;;;;;;42.19;22.21;98916.65;108118;1252;62425;-72
2023/07/25 10:27:47;;;;;;;16.60;7.10;;;;;;;42.42;21.70;98917.71;108173;1253;61234;-71
2023/07/25 10:30:25;;;;;;;11.90;6.60;;;;;;;42.43;21.97;98922.44;108053;1254;60286;-70
2023/07/25 10:32:54;;;;;;;10.50;6.70;;;;;;;42.34;22.00;98917.13;108143;1252;64990;-70
2023/07/25 10:35:41;;;;;;;9.10;6.30;;;;;;;42.41;22.04;98911.67;108190;1254;61389;-70
2023/07/25 10:38:10;;;;;;;12.50;6.80;;;;;;;42.58;21.88;98913.91;108087;1254;63894;-71
2023/07/25 10:40:51;;;;;;;12.60;7.40;;;;;;;42.60;21.54;98915.27;108177;1252;60281;-71
2023/07/25 10:43:20;;;;;;;11.10;7.00;;;;;;;42.57;21.65;98906.50;108128;1254;60430;-72
2023/07/25 10:45:49;;;;;;;10.50;6.60;;;;;;;42.69;21.97;98903.85;108152;1253;63870;-70
2023/07/25 10:48:43;;;;;;;9.10;6.80;;;;;;;43.03;21.42;98899.70;108209;1253;60559;-71
2023/07/25 10:51:12;;;;;;;10.60;6.90;;;;;;;43.29;21.16;98897.82;108039;1253;66235;-69
2023/07/25 10:53:40;;;;;;;11.70;6.60;;;;;;;43.04;21.29;98901.01;108178;1254;60562;-69
2023/07/25 10:56:08;;;;;;;12.70;7.20;;;;;;;42.44;21.59;98897.13;108075;1253;60432;-72
2023/07/25 10:58:38;;;;;;;14.90;7.20;;;;;;;42.12;22.48;98897.85;108208;1252;64324;-71
2023/07/25 11:01:06;;;;;;;11.60;8.00;;;;;;;42.06;22.23;98900.01;108132;1254;61438;-71
2023/07/25 11:03:35;;;;;;;10.50;6.60;;;;;;;42.41;21.58;98894.08;108106;1252;62418;-70
2023/07/25 11:06:06;;;;;;;13.50;7.20;;;;;;;42.20;22.20;98884.65;108127;1252;60457;-69
2023/07/25 11:08:33;;;;;;;11.60;7.50;;;;;;;42.23;22.29;98882.02;108119;1254;60889;-70
2023/07/25 11:11:11;;;;;;;10.80;7.20;;;;;;;42.42;21.97;98874.58;108196;1253;64986;-70
2023/07/25 11:13:40;;;;;;;12.70;7.20;;;;;;;42.56;22.04;98866.67;108150;1254;61360;-70
2023/07/25 11:16:11;;;;;;;10.40;7.60;;;;;;;42.47;21.70;98862.08;108141;1254;63675;-69
2023/07/25 11:18:49;;;;;;;11.20;8.00;;;;;;;42.64;20.90;98858.41;108258;1253;60296;-72
2023/07/25 11:21:16;;;;;;;9.90;7.20;;;;;;;42.64;21.38;98851.10;108130;1252;59600;-71
2023/07/25 11:23:44;;;;;;;10.30;6.90;;;;;;;42.65;21.43;98849.77;108204;1253;63699;-71